Time;durP1;ratioP1;P1;durP2;ratioP2;P2;SDS_P1;SDS_P2;PMS_P1;PMS_P2;Temp;Humidity;BMP_temperature;BMP_pressure;BME280_temperature;BME280_humidity;BME280_pressure;Samples;Min_cycle;Max_cycle;Signal;HPM_P1;HPM_P2
2021/03/01 00:00:59;;;;;;;23.15;12.07;;;;;;;3.14;83.85;101950.94;5078073;28;20113;-75
2021/03/01 00:03:26;;;;;;;23.23;13.00;;;;;;;3.05;83.88;101950.06;5095730;28;20401;-80
2021/03/01 00:05:52;;;;;;;26.95;12.38;;;;;;;2.97;83.75;101950.09;5095810;28;20055;-80
2021/03/01 00:08:18;;;;;;;21.70;12.90;;;;;;;3.06;84.49;101957.09;5095403;28;20059;-81
2021/03/01 00:10:44;;;;;;;23.85;13.13;;;;;;;3.04;84.97;101950.09;5095668;28;20067;-79
2021/03/01 00:13:10;;;;;;;29.25;14.75;;;;;;;3.12;85.28;101953.59;5077793;28;20098;-78
2021/03/01 00:15:37;;;;;;;30.83;15.65;;;;;;;2.97;85.48;101949.19;5061311;28;20048;-79
2021/03/01 00:18:05;;;;;;;31.77;18.60;;;;;;;3.04;86.29;101950.94;5077580;28;20052;-77
2021/03/01 00:20:32;;;;;;;29.52;16.38;;;;;;;3.08;84.62;101954.47;5095697;28;20048;-79
2021/03/01 00:22:58;;;;;;;26.98;14.45;;;;;;;3.01;84.80;101958.88;5097536;28;20052;-79
2021/03/01 00:25:24;;;;;;;38.65;21.15;;;;;;;2.98;85.36;101949.19;5097012;28;20425;-79
2021/03/01 00:27:50;;;;;;;55.53;33.88;;;;;;;3.08;85.51;101957.09;5095394;28;20101;-76
2021/03/01 00:30:17;;;;;;;54.30;39.10;;;;;;;3.04;85.96;101947.44;5095212;28;20437;-80
2021/03/01 00:32:43;;;;;;;57.45;39.85;;;;;;;3.11;85.44;101952.69;5095619;28;20443;-78
2021/03/01 00:35:10;;;;;;;60.53;39.33;;;;;;;3.10;85.46;101960.59;5095697;28;20044;-79
2021/03/01 00:37:37;;;;;;;60.33;40.80;;;;;;;3.12;85.42;101956.22;5095927;28;20125;-76
2021/03/01 00:40:04;;;;;;;60.83;42.28;;;;;;;3.10;86.01;101957.97;5061018;28;20074;-81
2021/03/01 00:42:31;;;;;;;64.70;42.22;;;;;;;3.09;85.96;101959.75;5095421;28;20050;-76
2021/03/01 00:44:57;;;;;;;55.53;38.95;;;;;;;3.14;87.34;101964.16;5095267;28;20113;-78
2021/03/01 00:47:23;;;;;;;53.10;34.67;;;;;;;3.10;86.47;101956.22;5095260;28;20059;-79
2021/03/01 00:49:49;;;;;;;51.15;33.50;;;;;;;3.17;86.49;101966.78;5077361;28;20073;-79
2021/03/01 00:52:15;;;;;;;47.25;32.10;;;;;;;3.19;86.11;101968.53;5095161;28;20119;-78
2021/03/01 00:54:41;;;;;;;45.08;29.13;;;;;;;3.20;85.93;101962.38;5095247;28;20052;-80
2021/03/01 00:57:08;;;;;;;54.50;32.88;;;;;;;3.17;86.23;101966.78;5095091;28;20353;-77
2021/03/01 00:59:34;;;;;;;47.30;31.02;;;;;;;3.10;86.24;101950.94;5094814;28;20429;-77
2021/03/01 01:02:00;;;;;;;43.05;29.90;;;;;;;3.03;86.34;101943.03;5095563;28;20048;-80
2021/03/01 01:04:27;;;;;;;43.45;30.00;;;;;;;3.09;86.14;101954.47;5095292;28;20131;-78
2021/03/01 01:06:53;;;;;;;52.95;33.10;;;;;;;3.01;86.05;101940.41;5094954;28;20047;-78
2021/03/01 01:09:19;;;;;;;53.90;38.50;;;;;;;2.98;86.39;101954.47;5095054;28;20052;-79
2021/03/01 01:11:45;;;;;;;65.47;46.30;;;;;;;2.90;86.67;101932.50;5077290;28;20044;-80
2021/03/01 01:14:12;;;;;;;79.47;60.25;;;;;;;3.02;86.98;101943.91;5060600;28;20359;-78
2021/03/01 01:16:38;;;;;;;80.55;61.25;;;;;;;3.05;86.92;101947.41;5095362;28;20047;-79
2021/03/01 01:19:09;;;;;;;79.25;58.72;;;;;;;3.05;87.28;101949.19;5077327;28;20066;-78
2021/03/01 01:21:35;;;;;;;65.80;50.85;;;;;;;3.13;87.62;101939.50;5076912;28;20109;-77
2021/03/01 01:24:02;;;;;;;68.05;44.17;;;;;;;3.15;88.22;101935.09;5094555;28;20303;-79
2021/03/01 01:26:29;;;;;;;62.05;38.33;;;;;;;3.21;88.40;101932.44;5094641;28;20437;-78
2021/03/01 01:28:56;;;;;;;50.85;38.33;;;;;;;3.19;87.92;101938.59;5095986;28;20048;-79
2021/03/01 01:31:22;;;;;;;44.63;27.83;;;;;;;3.23;88.22;101935.97;5064238;28;20059;-80
2021/03/01 01:33:48;;;;;;;48.38;26.45;;;;;;;3.32;88.67;101931.56;5098330;28;20051;-78
2021/03/01 01:36:14;;;;;;;42.25;26.35;;;;;;;3.22;88.00;101913.09;5080731;28;20044;-77
2021/03/01 01:38:51;;;;;;;39.55;21.92;;;;;;;3.33;88.12;101944.75;5098756;28;20164;-80
2021/03/01 01:41:17;;;;;;;38.05;22.83;;;;;;;3.30;88.41;101938.59;5064064;28;20063;-78
2021/03/01 01:43:43;;;;;;;41.05;22.35;;;;;;;3.24;87.45;101936.84;5080586;28;20055;-77
2021/03/01 01:46:09;;;;;;;36.53;20.55;;;;;;;3.20;88.40;101924.53;5098400;28;20052;-78
2021/03/01 01:48:36;;;;;;;35.83;20.45;;;;;;;3.19;88.03;101935.97;5080751;28;20163;-77
2021/03/01 01:51:02;;;;;;;38.95;19.30;;;;;;;3.18;88.60;101929.84;5101169;28;20047;-76
2021/03/01 01:53:30;;;;;;;39.20;20.80;;;;;;;3.25;88.50;101943.88;5108287;28;20052;-76
2021/03/01 01:55:57;;;;;;;39.30;20.35;;;;;;;3.23;88.54;101935.09;5106381;28;20048;-78
2021/03/01 01:58:23;;;;;;;39.63;22.17;;;;;;;3.23;88.45;101930.69;5102148;28;20056;-76
2021/03/01 02:00:51;;;;;;;36.67;22.70;;;;;;;3.19;88.38;101923.66;5102122;28;20048;-79
2021/03/01 02:03:36;;;;;;;39.25;24.42;;;;;;;3.15;88.73;101927.19;5080492;28;20048;-77
2021/03/01 02:06:10;;;;;;;47.58;32.22;;;;;;;3.17;88.25;101930.72;5098081;28;20105;-81
2021/03/01 02:09:20;;;;;;;55.55;36.28;;;;;;;3.06;88.47;101916.66;5098083;28;20139;-77
2021/03/01 02:12:08;;;;;;;61.65;38.00;;;;;;;3.22;88.19;101933.34;5055844;28;20052;-78
2021/03/01 02:14:52;;;;;;;58.78;38.85;;;;;;;3.16;88.91;101934.22;5097966;28;20078;-78
2021/03/01 02:17:18;;;;;;;55.38;36.35;;;;;;;3.20;88.67;101927.16;5097784;28;20059;-76
2021/03/01 02:19:45;;;;;;;54.85;33.90;;;;;;;3.20;88.48;101932.44;5097582;28;20048;-80
2021/03/01 02:22:11;;;;;;;58.08;31.60;;;;;;;3.16;88.53;101931.56;5079669;28;20429;-78
2021/03/01 02:24:48;;;;;;;54.80;32.00;;;;;;;3.15;88.85;101906.06;5097474;28;20070;-79
2021/03/01 02:27:21;;;;;;;52.30;29.45;;;;;;;3.25;88.85;101917.50;5097407;28;20436;-80
2021/03/01 02:29:49;;;;;;;46.30;25.35;;;;;;;3.16;89.37;101902.53;5097649;28;20482;-77
2021/03/01 02:32:16;;;;;;;36.40;24.15;;;;;;;3.15;89.33;101918.41;5080051;28;20437;-80
2021/03/01 02:34:44;;;;;;;38.63;23.98;;;;;;;3.09;89.75;101903.44;5079604;28;20123;-78
2021/03/01 02:37:17;;;;;;;38.08;22.50;;;;;;;3.09;89.31;101896.41;5097420;28;20059;-77
2021/03/01 02:39:45;;;;;;;38.08;21.98;;;;;;;3.10;89.60;101911.38;5096969;28;20051;-78
2021/03/01 02:42:16;;;;;;;36.72;21.67;;;;;;;3.05;88.95;101905.22;5079321;28;20056;-77
2021/03/01 02:44:43;;;;;;;36.90;20.67;;;;;;;3.04;89.21;101913.16;5097070;28;20101;-80
2021/03/01 02:47:11;;;;;;;36.63;21.30;;;;;;;2.99;89.14;101898.19;5097040;28;20403;-77
2021/03/01 02:49:39;;;;;;;38.95;21.65;;;;;;;3.06;89.03;101911.38;5096038;28;20059;-77
2021/03/01 02:52:07;;;;;;;39.50;21.30;;;;;;;2.92;88.88;101896.44;5097228;28;20109;-79
2021/03/01 02:54:34;;;;;;;43.58;24.02;;;;;;;2.95;88.64;101912.25;5079299;28;20040;-77
2021/03/01 02:57:01;;;;;;;37.90;23.35;;;;;;;2.94;88.61;101909.63;5096878;28;20048;-78
2021/03/01 02:59:28;;;;;;;43.30;26.25;;;;;;;2.96;88.59;101916.63;5062612;28;20060;-77
2021/03/01 03:01:55;;;;;;;43.10;27.73;;;;;;;2.79;88.72;101894.69;5097107;28;20327;-76
2021/03/01 03:04:23;;;;;;;49.25;30.00;;;;;;;2.89;88.73;101916.66;5078916;28;20052;-80
2021/03/01 03:06:50;;;;;;;52.80;29.98;;;;;;;2.81;88.95;101907.00;5079222;28;20113;-78
2021/03/01 03:09:17;;;;;;;46.55;30.05;;;;;;;2.79;88.86;101914.00;5096728;28;20055;-76
2021/03/01 03:11:44;;;;;;;50.08;28.65;;;;;;;2.70;88.30;101909.66;5096906;28;20062;-78
2021/03/01 03:14:18;;;;;;;45.55;27.58;;;;;;;2.72;88.35;101912.25;5097356;28;20336;-78
2021/03/01 03:16:48;;;;;;;46.33;27.60;;;;;;;2.68;88.71;101907.88;5096444;28;20048;-79
2021/03/01 03:19:14;;;;;;;42.25;26.75;;;;;;;2.60;88.32;101904.38;5096681;28;20078;-80
2021/03/01 03:21:41;;;;;;;44.35;27.13;;;;;;;2.58;88.60;101904.38;5096349;28;20059;-78
2021/03/01 03:24:07;;;;;;;39.30;23.92;;;;;;;2.62;88.59;101899.97;5096323;28;20052;-77
2021/03/01 03:26:35;;;;;;;36.83;22.52;;;;;;;2.59;88.63;101900.84;5096258;28;20052;-79
2021/03/01 03:29:01;;;;;;;39.88;22.10;;;;;;;2.57;89.33;101889.44;5095403;28;20099;-77
2021/03/01 03:31:28;;;;;;;39.50;22.88;;;;;;;2.49;88.59;101878.88;5096259;28;20105;-78
2021/03/01 03:33:54;;;;;;;43.58;22.35;;;;;;;2.52;88.51;101888.53;5095017;28;20323;-78
2021/03/01 03:36:24;;;;;;;42.22;23.00;;;;;;;2.53;88.91;101909.63;5096289;28;20101;-78
2021/03/01 03:39:01;;;;;;;40.47;22.08;;;;;;;2.37;88.67;101886.75;5095895;28;20093;-79
2021/03/01 03:41:29;;;;;;;33.25;20.90;;;;;;;2.42;88.68;101893.81;5078196;28;20044;-79
2021/03/01 03:43:56;;;;;;;33.80;20.20;;;;;;;2.48;88.51;101898.22;5096201;28;20047;-79
2021/03/01 03:46:26;;;;;;;36.85;20.13;;;;;;;2.41;88.16;101888.53;5096023;28;20365;-79
2021/03/01 03:48:56;;;;;;;34.88;20.30;;;;;;;2.41;88.69;101892.03;5096060;28;20087;-80
2021/03/01 03:51:26;;;;;;;37.47;19.70;;;;;;;2.37;88.51;101895.56;5077435;28;20052;-78
2021/03/01 03:53:57;;;;;;;42.45;19.25;;;;;;;2.46;88.49;101901.72;5095776;28;20170;-80
2021/03/01 03:56:26;;;;;;;32.97;20.65;;;;;;;2.36;88.74;101909.63;5095874;28;20060;-76
2021/03/01 03:58:57;;;;;;;33.08;20.00;;;;;;;2.30;88.82;101904.34;5095933;28;20087;-78
2021/03/01 04:01:26;;;;;;;35.40;19.23;;;;;;;2.27;88.94;101904.31;5096035;28;20056;-78
2021/03/01 04:03:57;;;;;;;34.67;19.20;;;;;;;2.26;89.06;101911.34;5077753;28;20044;-76
2021/03/01 04:06:24;;;;;;;31.63;19.53;;;;;;;2.27;89.26;101912.22;5095973;28;20100;-76
2021/03/01 04:08:52;;;;;;;37.22;20.75;;;;;;;2.27;88.84;101910.47;5095702;28;20052;-76
2021/03/01 04:11:21;;;;;;;43.53;20.38;;;;;;;2.23;88.63;101919.25;5077808;28;20056;-79
2021/03/01 04:13:50;;;;;;;38.03;22.50;;;;;;;2.29;89.25;101926.31;5095713;28;20055;-76
2021/03/01 04:16:17;;;;;;;35.88;21.35;;;;;;;2.26;88.78;101926.28;5078018;28;20055;-79
2021/03/01 04:18:47;;;;;;;36.38;21.65;;;;;;;2.20;89.10;101923.63;5095900;28;20052;-77
2021/03/01 04:21:14;;;;;;;34.60;22.63;;;;;;;2.19;89.55;101922.75;5095813;28;20086;-78
2021/03/01 04:23:45;;;;;;;36.58;22.90;;;;;;;2.12;89.56;101921.84;5085487;28;20048;-78
2021/03/01 04:26:12;;;;;;;41.63;24.20;;;;;;;2.11;89.71;101919.22;5104103;28;20056;-77
2021/03/01 04:28:40;;;;;;;37.50;23.95;;;;;;;1.98;89.50;101913.94;5096933;28;20052;-76
2021/03/01 04:31:09;;;;;;;45.42;24.33;;;;;;;1.88;89.44;101894.59;5078135;28;20048;-76
2021/03/01 04:33:38;;;;;;;40.70;23.80;;;;;;;1.98;89.56;101919.19;5095306;28;20078;-76
2021/03/01 04:36:05;;;;;;;35.35;22.15;;;;;;;1.90;88.95;101915.63;5077887;28;20055;-77
2021/03/01 04:38:33;;;;;;;32.90;21.65;;;;;;;1.86;88.49;101919.16;5095247;28;20109;-77
2021/03/01 04:41:00;;;;;;;36.78;22.88;;;;;;;1.79;88.63;101914.72;5077447;28;20060;-80
2021/03/01 04:43:28;;;;;;;46.88;28.77;;;;;;;1.81;89.73;101910.34;5094511;28;20040;-77
2021/03/01 04:45:55;;;;;;;58.75;36.58;;;;;;;1.75;90.08;101911.22;5095272;28;20063;-80
2021/03/01 04:48:23;;;;;;;47.30;31.95;;;;;;;1.72;88.74;101917.34;5095103;28;20052;-80
2021/03/01 04:50:51;;;;;;;46.47;31.00;;;;;;;1.68;88.86;101915.56;5095510;28;20047;-76
2021/03/01 04:53:19;;;;;;;52.42;33.35;;;;;;;1.61;88.79;101912.03;5095275;28;20101;-76
2021/03/01 04:55:46;;;;;;;54.15;37.03;;;;;;;1.57;89.24;101912.88;5095603;28;20058;-77
2021/03/01 04:58:15;;;;;;;72.15;48.60;;;;;;;1.52;89.38;101911.09;5095359;28;20134;-77
2021/03/01 05:00:42;;;;;;;72.72;50.85;;;;;;;1.55;89.38;101925.16;5094186;28;20102;-80
2021/03/01 05:03:10;;;;;;;77.72;56.85;;;;;;;1.53;89.32;101926.03;5096551;28;20052;-79
2021/03/01 05:05:37;;;;;;;87.20;61.22;;;;;;;1.53;89.48;101929.50;5081535;28;20055;-79
2021/03/01 05:08:11;;;;;;;91.07;66.90;;;;;;;1.45;88.87;101908.44;5098991;28;20059;-76
2021/03/01 05:10:38;;;;;;;105.18;72.93;;;;;;;1.56;89.61;101926.03;5081358;28;20327;-79
2021/03/01 05:13:05;;;;;;;107.00;75.97;;;;;;;1.52;89.71;101926.91;5081357;28;20364;-78
2021/03/01 05:15:31;;;;;;;113.32;75.88;;;;;;;1.50;89.80;101926.88;5099435;28;20060;-79
2021/03/01 05:17:58;;;;;;;111.20;78.97;;;;;;;1.39;89.55;101911.03;5098982;28;20105;-76
2021/03/01 05:20:24;;;;;;;112.30;79.75;;;;;;;1.42;90.01;101905.78;5103622;28;20048;-77
2021/03/01 05:22:50;;;;;;;118.97;81.28;;;;;;;1.51;90.01;101914.63;5085855;28;20357;-76
2021/03/01 05:25:17;;;;;;;112.15;76.05;;;;;;;1.46;90.15;101915.47;5086318;28;20404;-76
2021/03/01 05:27:43;;;;;;;105.07;71.93;;;;;;;1.45;90.09;101923.34;5103761;28;20429;-76
2021/03/01 05:30:12;;;;;;;95.80;63.92;;;;;;;1.48;89.96;101933.88;5102993;28;20052;-79
2021/03/01 05:32:38;;;;;;;103.55;69.90;;;;;;;1.51;89.73;101923.38;5099033;28;20060;-78
2021/03/01 05:35:07;;;;;;;103.35;68.50;;;;;;;1.49;90.34;101925.13;5081164;28;20051;-77
2021/03/01 05:37:33;;;;;;;113.57;72.80;;;;;;;1.42;90.87;101924.19;5099550;28;20071;-76
2021/03/01 05:40:00;;;;;;;119.50;76.68;;;;;;;1.39;90.26;101924.19;5092885;28;20056;-75
2021/03/01 05:42:27;;;;;;;115.38;69.47;;;;;;;1.49;90.37;101927.75;5101966;28;20059;-76
2021/03/01 05:44:54;;;;;;;119.20;73.35;;;;;;;1.40;90.69;101925.94;5099010;28;20051;-76
2021/03/01 05:47:22;;;;;;;110.95;67.93;;;;;;;1.46;90.29;101925.97;5099048;28;20052;-76
2021/03/01 05:49:49;;;;;;;109.72;62.08;;;;;;;1.47;90.33;101925.09;5098886;28;20060;-78
2021/03/01 05:52:17;;;;;;;122.07;64.65;;;;;;;1.39;91.27;101923.28;5080755;28;20052;-80
2021/03/01 05:54:45;;;;;;;125.85;62.35;;;;;;;1.33;91.33;101909.25;5098172;28;20071;-76
2021/03/01 05:57:12;;;;;;;103.13;56.83;;;;;;;1.38;91.18;101932.06;5080877;28;20047;-78
2021/03/01 05:59:40;;;;;;;107.57;58.88;;;;;;;1.41;91.13;101930.34;5080205;28;20052;-76
2021/03/01 06:02:07;;;;;;;125.25;58.60;;;;;;;1.39;91.01;101928.56;5080115;28;20052;-78
2021/03/01 06:04:34;;;;;;;142.77;59.15;;;;;;;1.32;91.02;101911.88;5098207;28;20052;-79
2021/03/01 06:07:00;;;;;;;133.75;55.28;;;;;;;1.39;90.96;101933.81;5079980;28;20425;-78
2021/03/01 06:09:26;;;;;;;157.35;56.75;;;;;;;1.40;91.28;101940.84;5079838;28;20059;-78
2021/03/01 06:11:54;;;;;;;139.90;57.08;;;;;;;1.42;91.32;101937.34;5080121;28;20084;-79
2021/03/01 06:14:22;;;;;;;115.53;52.10;;;;;;;1.36;92.04;101934.69;5079150;28;20048;-77
2021/03/01 06:17:15;;;;;;;112.05;46.17;;;;;;;1.44;91.73;101940.88;5097884;28;20306;-79
2021/03/01 06:19:46;;;;;;;107.45;43.30;;;;;;;1.36;92.00;101939.94;5097874;28;20314;-76
2021/03/01 06:22:13;;;;;;;113.75;44.75;;;;;;;1.39;92.42;101944.34;5097517;28;20343;-78
2021/03/01 06:24:40;;;;;;;107.40;43.05;;;;;;;1.43;92.02;101940.88;5079879;28;20337;-76
2021/03/01 06:27:11;;;;;;;104.75;41.55;;;;;;;1.46;92.00;101946.13;5097363;28;20083;-75
2021/03/01 06:30:03;;;;;;;91.45;39.92;;;;;;;1.55;91.67;101953.22;5079443;28;20464;-77
2021/03/01 06:32:31;;;;;;;84.10;35.83;;;;;;;1.55;91.79;101951.47;5079689;28;20060;-76
2021/03/01 06:34:58;;;;;;;83.93;36.80;;;;;;;1.53;91.94;101952.34;5079521;28;20048;-77
2021/03/01 06:37:24;;;;;;;73.88;35.42;;;;;;;1.52;91.99;101954.06;5097263;28;20434;-79
2021/03/01 06:39:52;;;;;;;81.97;33.40;;;;;;;1.54;92.13;101952.34;5096785;28;20059;-74
2021/03/01 06:42:25;;;;;;;85.10;34.85;;;;;;;1.56;91.81;101957.59;5097076;28;20425;-76
2021/03/01 06:45:03;;;;;;;75.55;32.97;;;;;;;1.51;91.79;101951.44;5092494;28;20433;-74
2021/03/01 06:47:50;;;;;;;86.05;33.08;;;;;;;1.55;91.89;101953.22;5094139;28;20070;-73
2021/03/01 06:50:31;;;;;;;70.22;34.03;;;;;;;1.48;91.55;101961.06;5098179;28;20047;-72
2021/03/01 06:52:59;;;;;;;99.90;32.20;;;;;;;1.52;91.78;101955.84;5083688;28;20079;-73
2021/03/01 06:55:26;;;;;;;80.75;33.28;;;;;;;1.49;91.99;101954.94;5081063;28;20044;-74
2021/03/01 06:57:52;;;;;;;87.80;34.28;;;;;;;1.56;91.89;101961.13;5096373;28;20066;-73
2021/03/01 07:00:26;;;;;;;105.03;34.15;;;;;;;1.55;91.58;101967.25;5096372;28;20044;-73
2021/03/01 07:02:56;;;;;;;91.50;37.75;;;;;;;1.58;91.36;101958.50;5095408;28;20044;-74
2021/03/01 07:05:23;;;;;;;91.47;36.88;;;;;;;1.65;91.57;101976.09;5096500;28;20047;-74
2021/03/01 07:07:49;;;;;;;103.70;36.67;;;;;;;1.65;91.43;101972.56;5096412;28;20054;-74
2021/03/01 07:10:15;;;;;;;76.22;33.47;;;;;;;1.63;91.17;101972.56;5096080;28;20042;-75
2021/03/01 07:12:51;;;;;;;77.35;31.02;;;;;;;1.59;91.35;101974.28;5078574;28;20060;-76
2021/03/01 07:15:18;;;;;;;67.53;31.38;;;;;;;1.61;91.57;101974.31;5090497;28;20043;-73
2021/03/01 07:17:45;;;;;;;66.30;30.83;;;;;;;1.67;91.59;101976.09;5078161;28;20056;-76
2021/03/01 07:20:13;;;;;;;68.97;33.45;;;;;;;1.74;91.48;101965.59;5096300;28;20130;-75
2021/03/01 07:22:41;;;;;;;50.13;27.27;;;;;;;1.78;91.20;101970.91;5094230;28;20429;-73
2021/03/01 07:25:12;;;;;;;53.78;27.23;;;;;;;1.83;90.80;101971.78;5062596;28;20044;-78
2021/03/01 07:27:41;;;;;;;62.00;29.77;;;;;;;1.80;91.39;101972.63;5092389;28;20044;-74
2021/03/01 07:30:10;;;;;;;55.50;28.50;;;;;;;1.79;91.01;101970.03;5095750;28;20043;-78
2021/03/01 07:32:38;;;;;;;53.47;26.95;;;;;;;1.80;91.39;101969.16;5095882;28;20051;-74
2021/03/01 07:35:07;;;;;;;61.90;28.92;;;;;;;1.89;90.91;101962.16;5095951;28;20040;-75
2021/03/01 07:37:36;;;;;;;76.57;32.50;;;;;;;1.87;91.14;101963.03;5077951;28;20048;-74
2021/03/01 07:40:06;;;;;;;109.03;42.55;;;;;;;1.94;90.83;101964.81;5095616;28;20128;-76
2021/03/01 07:42:33;;;;;;;113.40;49.53;;;;;;;2.02;90.48;101963.09;5077595;28;20120;-73
2021/03/01 07:45:01;;;;;;;138.38;52.40;;;;;;;2.08;90.73;101964.88;5074886;28;20087;-76
2021/03/01 07:47:28;;;;;;;144.85;55.92;;;;;;;2.12;90.75;101960.50;5057760;28;20053;-75
2021/03/01 07:49:55;;;;;;;178.18;56.97;;;;;;;2.18;90.27;101957.84;5074884;28;20047;-74
2021/03/01 07:52:27;;;;;;;134.00;52.28;;;;;;;2.39;89.66;101962.31;5074219;28;20109;-73
2021/03/01 07:54:53;;;;;;;135.77;55.03;;;;;;;2.47;89.33;101951.81;5074506;28;20057;-76
2021/03/01 07:57:22;;;;;;;160.40;55.85;;;;;;;2.56;88.88;101959.72;5070766;28;20048;-75
2021/03/01 07:59:51;;;;;;;154.73;52.47;;;;;;;2.44;89.08;101964.97;5073556;28;20071;-74
2021/03/01 08:02:22;;;;;;;135.98;52.70;;;;;;;2.53;88.77;101967.63;5071049;28;20357;-75
2021/03/01 08:04:50;;;;;;;107.68;49.10;;;;;;;2.40;89.50;101965.84;5074393;28;20041;-75
2021/03/01 08:07:17;;;;;;;88.47;46.53;;;;;;;2.35;89.57;101964.94;5074861;28;20052;-77
2021/03/01 08:09:51;;;;;;;77.18;39.30;;;;;;;2.39;89.22;101974.63;5041189;28;20052;-78
2021/03/01 08:12:29;;;;;;;68.35;36.95;;;;;;;2.40;89.12;101968.47;5071468;28;20048;-78
2021/03/01 08:15:03;;;;;;;73.82;37.17;;;;;;;2.31;89.48;101969.34;5075036;28;20091;-75
2021/03/01 08:17:30;;;;;;;70.07;35.53;;;;;;;2.38;89.69;101970.22;5075016;28;20062;-76
2021/03/01 08:20:20;;;;;;;66.78;33.80;;;;;;;2.52;89.66;101971.16;5075124;28;20055;-75
2021/03/01 08:23:04;;;;;;;46.90;25.52;;;;;;;2.53;88.97;101964.09;5073670;28;20048;-75
2021/03/01 08:25:46;;;;;;;39.90;22.95;;;;;;;2.44;89.19;101979.03;5073122;28;20147;-77
2021/03/01 08:28:15;;;;;;;43.30;23.48;;;;;;;2.48;89.36;101976.38;5074709;28;20044;-73
2021/03/01 08:30:42;;;;;;;41.55;23.90;;;;;;;2.59;89.19;101969.38;5074851;28;20055;-76
2021/03/01 08:33:10;;;;;;;37.63;23.27;;;;;;;2.68;88.85;101966.75;5076367;28;20080;-74
2021/03/01 08:35:46;;;;;;;41.28;24.33;;;;;;;2.53;89.43;101964.09;5075478;28;20446;-78
2021/03/01 08:38:14;;;;;;;43.30;24.67;;;;;;;2.53;89.59;101965.00;5076812;28;20418;-77
2021/03/01 08:40:54;;;;;;;40.47;23.40;;;;;;;2.67;89.09;101948.31;5081926;28;20429;-76
2021/03/01 08:43:42;;;;;;;40.38;22.55;;;;;;;2.71;89.22;101950.06;5081578;28;20094;-76
2021/03/01 08:46:18;;;;;;;37.78;22.90;;;;;;;2.75;88.44;101943.91;5079468;28;20064;-75
2021/03/01 08:48:49;;;;;;;39.78;23.08;;;;;;;2.93;88.24;101952.69;5079331;28;20060;-76
2021/03/01 08:51:17;;;;;;;37.00;21.10;;;;;;;2.94;87.69;101941.28;5081353;28;20337;-77
2021/03/01 08:53:43;;;;;;;40.42;22.98;;;;;;;3.09;87.82;101943.00;5078610;28;20053;-76
2021/03/01 08:56:18;;;;;;;37.85;22.33;;;;;;;3.12;87.85;101949.16;5081441;28;20091;-76
2021/03/01 08:58:44;;;;;;;38.30;21.25;;;;;;;3.28;87.39;101943.91;5080000;28;20114;-76
2021/03/01 09:01:11;;;;;;;40.97;21.55;;;;;;;3.28;86.88;101943.00;5081234;28;20067;-77
2021/03/01 09:03:45;;;;;;;34.78;20.95;;;;;;;3.24;86.90;101944.75;5081349;28;20040;-76
2021/03/01 09:06:20;;;;;;;45.30;24.08;;;;;;;3.26;87.17;101938.59;5080291;28;20054;-76
2021/03/01 09:08:51;;;;;;;40.70;22.45;;;;;;;3.39;87.09;101942.09;5061060;28;20063;-76
2021/03/01 09:11:22;;;;;;;43.78;23.55;;;;;;;3.19;87.55;101946.53;5081505;28;20052;-75
2021/03/01 09:13:51;;;;;;;42.05;23.98;;;;;;;3.17;87.34;101945.66;5081133;28;20044;-74
2021/03/01 09:16:26;;;;;;;40.15;23.80;;;;;;;3.19;87.67;101943.88;5084990;28;20357;-77
2021/03/01 09:19:04;;;;;;;45.30;23.35;;;;;;;3.25;87.38;101954.44;5085169;28;20052;-75
2021/03/01 09:21:34;;;;;;;38.67;22.33;;;;;;;3.17;87.65;101933.34;5084958;28;20048;-75
2021/03/01 09:24:01;;;;;;;40.70;22.98;;;;;;;3.19;88.12;101941.25;5082551;28;20048;-77
2021/03/01 09:26:38;;;;;;;40.50;23.38;;;;;;;3.16;88.03;101938.63;5081896;28;20048;-75
2021/03/01 09:29:13;;;;;;;43.47;23.13;;;;;;;3.12;88.21;101941.25;5078364;28;20045;-76
2021/03/01 09:31:47;;;;;;;38.95;23.13;;;;;;;3.23;88.38;101935.09;5081130;28;21033;-76
2021/03/01 09:34:15;;;;;;;39.28;23.45;;;;;;;3.23;88.73;101943.00;5061411;28;20341;-76
2021/03/01 09:36:53;;;;;;;40.70;22.45;;;;;;;3.26;88.90;101935.06;5081255;28;20083;-76
2021/03/01 09:39:25;;;;;;;43.08;24.13;;;;;;;3.26;88.67;101938.59;5081780;28;20052;-76
2021/03/01 09:41:54;;;;;;;45.67;25.58;;;;;;;3.40;88.45;101929.78;5079756;28;20345;-75
2021/03/01 09:44:39;;;;;;;46.53;23.52;;;;;;;3.52;88.23;101929.75;5081950;28;20049;-75
2021/03/01 09:47:08;;;;;;;39.75;23.10;;;;;;;3.63;88.86;101923.53;5081556;28;20083;-76
2021/03/01 09:49:39;;;;;;;39.35;22.05;;;;;;;3.86;88.75;101933.16;5045650;28;20052;-75
2021/03/01 09:52:06;;;;;;;41.78;23.98;;;;;;;4.03;87.97;101933.09;5079413;28;20048;-77
2021/03/01 09:54:33;;;;;;;38.60;22.45;;;;;;;4.26;87.67;101918.84;5060448;28;20041;-76
2021/03/01 09:57:05;;;;;;;34.75;21.73;;;;;;;4.44;86.83;101918.72;5077879;28;20123;-75
2021/03/01 09:59:39;;;;;;;38.75;22.95;;;;;;;4.60;86.13;101919.50;5076077;28;20049;-76
2021/03/01 10:02:13;;;;;;;38.67;22.33;;;;;;;4.72;85.57;101909.69;5058322;28;20052;-76
2021/03/01 10:04:40;;;;;;;37.33;23.63;;;;;;;4.81;86.04;101908.75;5077210;28;20079;-75
2021/03/01 10:07:15;;;;;;;40.58;24.13;;;;;;;5.13;84.92;101910.22;5058367;28;20443;-75
2021/03/01 10:09:42;;;;;;;39.13;22.55;;;;;;;5.17;83.93;101896.03;5077122;28;20049;-75
2021/03/01 10:12:09;;;;;;;42.15;24.05;;;;;;;5.29;84.14;101897.72;5057784;28;20048;-76
2021/03/01 10:14:35;;;;;;;34.25;22.58;;;;;;;5.46;82.92;101907.22;5059763;28;20044;-77
2021/03/01 10:17:15;;;;;;;34.17;20.63;;;;;;;5.60;82.48;101901.78;5077642;28;20170;-76
2021/03/01 10:19:41;;;;;;;34.35;20.73;;;;;;;5.67;80.55;101898.16;5077637;28;20052;-75
2021/03/01 10:22:08;;;;;;;37.92;20.85;;;;;;;5.91;81.06;101896.97;5076695;28;20044;-75
2021/03/01 10:24:47;;;;;;;35.00;20.70;;;;;;;6.10;80.03;101904.69;5077273;28;20041;-75
2021/03/01 10:27:16;;;;;;;35.58;21.45;;;;;;;6.25;79.35;101898.28;5075506;28;20051;-77
2021/03/01 10:29:44;;;;;;;35.50;20.58;;;;;;;6.35;78.53;101897.25;5076856;28;20048;-74
2021/03/01 10:32:22;;;;;;;34.08;20.10;;;;;;;6.48;78.27;101886.44;5074665;28;20052;-76
2021/03/01 10:34:50;;;;;;;30.85;19.15;;;;;;;6.62;77.78;101883.56;5077015;28;20315;-75
2021/03/01 10:37:18;;;;;;;32.35;18.40;;;;;;;6.74;76.91;101885.13;5078304;28;20102;-77
2021/03/01 10:39:47;;;;;;;30.45;18.88;;;;;;;6.86;77.36;101865.47;5076583;28;20385;-76
2021/03/01 10:42:18;;;;;;;36.45;21.92;;;;;;;7.09;76.61;101874.78;5074681;28;20066;-76
2021/03/01 10:44:54;;;;;;;42.33;24.55;;;;;;;7.23;76.06;101877.19;5075004;28;20048;-75
2021/03/01 10:47:23;;;;;;;43.60;24.77;;;;;;;7.36;75.44;101872.50;5073873;28;20063;-75
2021/03/01 10:49:55;;;;;;;46.65;25.42;;;;;;;7.46;75.33;101868.72;5076000;28;20377;-75
2021/03/01 10:52:24;;;;;;;33.28;21.20;;;;;;;7.64;73.99;101882.56;5076106;28;20098;-74
2021/03/01 10:54:53;;;;;;;43.75;24.08;;;;;;;7.65;73.32;101865.69;5073542;28;20437;-75
2021/03/01 10:57:19;;;;;;;196.95;35.38;;;;;;;7.83;73.06;101881.25;5076027;28;20056;-76
2021/03/01 10:59:50;;;;;;;31.10;18.20;;;;;;;7.94;73.27;101870.38;5075437;28;20113;-76
2021/03/01 11:02:17;;;;;;;36.03;19.58;;;;;;;8.14;72.51;101880.59;5075805;28;20047;-77
2021/03/01 11:04:45;;;;;;;29.58;17.50;;;;;;;8.27;71.78;101877.63;5076209;28;20044;-76
2021/03/01 11:07:12;;;;;;;33.88;18.20;;;;;;;8.41;72.02;101864.00;5072651;28;20400;-79
2021/03/01 11:09:38;;;;;;;57.47;20.52;;;;;;;8.53;70.34;101865.50;5077796;28;20106;-74
2021/03/01 11:12:06;;;;;;;38.67;19.65;;;;;;;8.61;69.70;101860.84;5076081;28;20122;-78
2021/03/01 11:14:32;;;;;;;32.83;17.25;;;;;;;8.74;69.21;101869.41;5055823;28;20041;-73
2021/03/01 11:16:58;;;;;;;23.73;14.23;;;;;;;9.00;67.75;101856.31;5073827;28;20350;-76
2021/03/01 11:19:25;;;;;;;21.25;13.25;;;;;;;9.19;67.75;101849.56;5058336;28;20310;-74
2021/03/01 11:21:52;;;;;;;24.02;13.25;;;;;;;9.38;66.40;101855.25;5072762;28;20048;-75
2021/03/01 11:24:21;;;;;;;23.73;12.32;;;;;;;9.37;65.98;101857.94;5057358;28;20071;-75
2021/03/01 11:26:52;;;;;;;24.20;13.50;;;;;;;9.51;65.52;101846.91;5075729;28;20056;-78